Time;durP1;ratioP1;P1;durP2;ratioP2;P2;SDS_P1;SDS_P2;PMS_P1;PMS_P2;Temp;Humidity;BMP_temperature;BMP_pressure;BME280_temperature;BME280_humidity;BME280_pressure;Samples;Min_cycle;Max_cycle;Signal;HPM_P1;HPM_P2
2023/06/20 00:00:26;;;;;;;16.88;5.05;;;;;;;15.71;51.84;99379.53;6106751;23;20052;-95
2023/06/20 00:02:52;;;;;;;11.90;4.77;;;;;;;15.91;51.95;99410.88;6091809;23;20013;-94
2023/06/20 00:05:18;;;;;;;12.73;5.15;;;;;;;15.72;52.45;99383.88;6144611;23;20135;-94
2023/06/20 00:07:45;;;;;;;20.27;5.43;;;;;;;15.80;52.79;99406.19;6121367;23;20041;-94
2023/06/20 00:10:11;;;;;;;16.08;5.13;;;;;;;15.70;53.39;99404.69;6120299;23;20040;-90
2023/06/20 00:12:40;;;;;;;14.73;5.13;;;;;;;15.65;53.19;99397.41;6117879;23;20033;-93
2023/06/20 00:15:06;;;;;;;31.13;5.85;;;;;;;15.89;52.61;99442.69;6120010;23;20014;-93
2023/06/20 00:17:32;;;;;;;18.98;4.65;;;;;;;15.68;52.78;99406.97;6109437;23;20360;-93
2023/06/20 00:19:59;;;;;;;14.07;5.63;;;;;;;15.79;53.22;99423.84;6104571;23;20121;-93
2023/06/20 00:22:24;;;;;;;32.40;5.93;;;;;;;15.71;53.63;99411.81;6062118;23;20050;-94
2023/06/20 00:24:50;;;;;;;27.98;5.90;;;;;;;15.73;53.52;99426.06;6117453;23;20018;-92
2023/06/20 00:27:17;;;;;;;24.00;5.43;;;;;;;15.51;53.59;99396.97;6146095;23;20017;-93
2023/06/20 00:29:43;;;;;;;23.25;5.90;;;;;;;15.49;53.05;99389.00;6145234;23;20077;-92
2023/06/20 00:32:09;;;;;;;14.90;6.55;;;;;;;15.59;53.37;99412.56;6116110;23;20032;-94
2023/06/20 00:34:35;;;;;;;37.70;6.03;;;;;;;15.49;53.36;99393.72;6115291;23;20534;-93
2023/06/20 00:37:01;;;;;;;50.30;6.32;;;;;;;15.49;53.54;99390.97;6114630;23;20359;-94
2023/06/20 00:39:27;;;;;;;30.73;5.60;;;;;;;15.71;53.63;99426.38;6116366;23;20077;-94
2023/06/20 00:41:53;;;;;;;20.48;6.00;;;;;;;15.57;53.45;99408.56;6137333;23;20021;-94
2023/06/20 00:44:19;;;;;;;21.88;5.70;;;;;;;15.64;53.91;99417.84;6090313;23;20090;-95
2023/06/20 00:46:47;;;;;;;18.48;5.47;;;;;;;15.59;53.80;99404.28;6135640;23;20017;-94
2023/06/20 00:49:13;;;;;;;26.83;5.97;;;;;;;15.39;53.58;99380.41;6112345;23;20018;-95
2023/06/20 00:51:39;;;;;;;29.33;6.10;;;;;;;15.66;54.06;99418.34;6111721;23;20022;-95
2023/06/20 00:54:06;;;;;;;23.65;6.20;;;;;;;15.45;53.93;99384.56;6136293;23;20017;-94
2023/06/20 00:56:32;;;;;;;29.17;6.13;;;;;;;15.54;53.66;99399.03;6136797;23;20017;-95
2023/06/20 00:58:59;;;;;;;19.15;6.13;;;;;;;15.61;54.45;99401.19;6135799;23;20029;-95
2023/06/20 01:01:27;;;;;;;29.23;6.80;;;;;;;15.58;54.32;99399.94;6110722;23;20168;-95
2023/06/20 01:03:53;;;;;;;23.00;6.28;;;;;;;15.68;53.87;99409.72;6112174;23;20116;-95
2023/06/20 01:06:49;;;;;;;29.77;6.63;;;;;;;15.51;54.67;99383.19;6119010;23;20025;-96
2023/06/20 01:09:25;;;;;;;19.15;6.13;;;;;;;15.85;54.92;99433.50;6117562;23;20021;-96
2023/06/20 01:12:05;;;;;;;20.38;6.30;;;;;;;15.54;54.95;99379.75;6116747;23;20017;-95
2023/06/20 01:15:00;;;;;;;21.50;6.50;;;;;;;15.65;54.78;99391.09;6115349;23;20018;-95
2023/06/20 01:18:09;;;;;;;21.95;6.65;;;;;;;15.87;55.12;99437.53;6139459;23;20161;-96
2023/06/20 01:20:44;;;;;;;22.98;6.70;;;;;;;15.76;55.53;99419.03;6062751;23;20018;-95
2023/06/20 01:23:20;;;;;;;25.60;6.75;;;;;;;15.84;55.69;99434.66;6084578;23;20126;-95
2023/06/20 01:25:46;;;;;;;;;;;;;;;15.85;56.01;99430.75;6083355;23;20034;-94
2023/06/20 01:28:32;;;;;;;19.83;6.40;;;;;;;15.82;56.31;99446.00;6082794;23;19923;-93
2023/06/20 01:31:21;;;;;;;13.70;6.20;;;;;;;15.69;56.41;99408.56;6107915;23;20050;-96
2023/06/20 01:33:52;;;;;;;20.67;6.15;;;;;;;15.68;56.43;99407.78;6060271;23;20049;-95
2023/06/20 01:36:21;;;;;;;21.73;7.05;;;;;;;15.94;56.59;99434.97;6059365;23;20025;-95
2023/06/20 01:38:53;;;;;;;23.02;6.88;;;;;;;15.65;56.26;99383.63;6081373;23;20017;-96
2023/06/20 01:41:22;;;;;;;17.08;6.70;;;;;;;15.65;56.64;99372.59;6106746;23;20061;-96
2023/06/20 01:43:51;;;;;;;18.30;6.30;;;;;;;15.84;56.02;99404.34;6106601;23;20049;-95
2023/06/20 01:46:19;;;;;;;15.70;5.93;;;;;;;15.89;55.63;99402.16;6061421;23;20053;-96
2023/06/20 01:48:47;;;;;;;19.55;6.82;;;;;;;15.85;55.64;99384.69;6079996;23;20616;-94
2023/06/20 01:51:15;;;;;;;26.73;6.50;;;;;;;15.82;55.27;99377.09;6103693;23;20024;-96
2023/06/20 01:53:42;;;;;;;29.25;6.93;;;;;;;16.10;55.47;99404.75;6105622;23;20024;-94
2023/06/20 01:56:10;;;;;;;17.35;6.60;;;;;;;16.01;55.13;99384.78;6112109;23;20018;-95
2023/06/20 01:58:40;;;;;;;21.67;6.47;;;;;;;16.11;55.33;99389.00;6110854;23;20060;-95
2023/06/20 02:01:07;;;;;;;29.08;6.28;;;;;;;16.34;54.78;99416.88;6111069;23;20024;-95
2023/06/20 02:03:34;;;;;;;;;;;;;;;16.57;54.89;99442.78;6136369;23;20021;-95
2023/06/20 02:06:01;;;;;;;18.73;6.47;;;;;;;16.57;55.09;99429.00;6112789;23;19916;-96
2023/06/20 02:08:30;;;;;;;22.23;6.22;;;;;;;16.32;54.61;99383.31;6114640;23;20021;-93
2023/06/20 02:10:57;;;;;;;26.60;6.40;;;;;;;16.79;53.82;99446.22;6117274;23;20025;-95
2023/06/20 02:13:24;;;;;;;18.33;5.43;;;;;;;16.54;53.66;99399.34;6116258;23;20360;-93
2023/06/20 02:15:54;;;;;;;17.77;6.30;;;;;;;16.75;53.26;99420.44;6114184;23;20045;-95
2023/06/20 02:18:21;;;;;;;15.90;6.43;;;;;;;16.65;53.75;99389.41;6111300;23;20044;-95
2023/06/20 02:20:51;;;;;;;22.45;6.10;;;;;;;17.00;52.74;99424.69;6136355;23;20017;-95
2023/06/20 02:23:29;;;;;;;21.27;5.15;;;;;;;16.99;51.08;99403.78;6136616;23;20049;-95
2023/06/20 02:26:10;;;;;;;25.63;5.63;;;;;;;16.99;50.97;99381.69;6111174;23;20053;-92
2023/06/20 02:28:44;;;;;;;19.50;5.10;;;;;;;17.46;47.58;99429.84;6114554;23;20025;-94
2023/06/20 02:31:19;;;;;;;15.55;4.70;;;;;;;17.54;47.58;99439.91;6113833;23;20028;-94
2023/06/20 02:33:48;;;;;;;12.52;4.30;;;;;;;17.33;45.68;99393.19;6117390;23;20340;-95
2023/06/20 02:36:16;;;;;;;12.43;4.28;;;;;;;17.46;45.49;99385.63;6138821;23;20017;-96
2023/06/20 02:38:43;;;;;;;17.25;3.95;;;;;;;17.62;44.13;99397.47;6123069;23;20017;-94
2023/06/20 02:41:10;;;;;;;13.48;4.10;;;;;;;17.61;44.16;99380.09;6123340;23;20049;-95
2023/06/20 02:43:35;;;;;;;8.00;3.67;;;;;;;17.81;43.35;99396.75;6120963;23;20045;-92
2023/06/20 02:46:13;;;;;;;16.38;4.53;;;;;;;17.74;42.81;99374.44;6120765;23;20027;-94
2023/06/20 02:48:55;;;;;;;10.48;4.07;;;;;;;17.78;42.37;99367.88;6146099;23;19997;-91
2023/06/20 02:51:32;;;;;;;12.25;3.97;;;;;;;18.25;42.31;99424.25;6118218;23;20021;-93
2023/06/20 02:54:09;;;;;;;18.20;3.88;;;;;;;18.32;42.80;99424.41;6115660;23;20483;-96
2023/06/20 02:56:37;;;;;;;;;;;;;;;18.34;42.68;99422.03;6120581;23;20033;-96
2023/06/20 02:59:16;;;;;;;15.65;4.30;;;;;;;18.39;42.53;99423.75;6120984;23;19999;-95
2023/06/20 03:01:52;;;;;;;14.88;4.35;;;;;;;18.40;41.91;99420.59;6122525;23;20337;-92
2023/06/20 03:04:24;;;;;;;10.63;4.13;;;;;;;18.10;41.15;99356.72;6122611;23;20026;-94
2023/06/20 03:07:33;;;;;;;9.05;3.63;;;;;;;18.58;41.26;99431.28;6172733;23;20013;-94
2023/06/20 03:10:03;;;;;;;8.70;3.85;;;;;;;18.01;40.92;99332.03;6124377;23;20085;-96
2023/06/20 03:12:33;;;;;;;12.70;3.97;;;;;;;18.35;41.07;99378.59;6148755;23;20025;-95
2023/06/20 03:15:02;;;;;;;;;;;;;;;18.73;41.15;99428.44;6123770;23;20047;-95
2023/06/20 03:17:44;;;;;;;14.07;4.28;;;;;;;18.25;41.01;99350.31;6152257;23;19921;-92
2023/06/20 03:20:10;;;;;;;12.65;3.75;;;;;;;18.61;41.20;99400.88;6125096;23;19997;-96
2023/06/20 03:22:39;;;;;;;18.70;4.13;;;;;;;18.75;41.36;99414.25;6148531;23;20113;-96
2023/06/20 03:25:06;;;;;;;21.17;4.05;;;;;;;18.44;41.64;99355.06;6120451;23;20060;-95
2023/06/20 03:27:36;;;;;;;9.05;4.20;;;;;;;18.54;40.69;99357.25;6122891;23;20032;-96
2023/06/20 03:30:03;;;;;;;13.20;4.22;;;;;;;18.93;41.94;99392.41;6118061;23;20082;-94
2023/06/20 03:32:33;;;;;;;16.05;3.97;;;;;;;18.77;40.78;99384.19;6124846;23;20001;-89
2023/06/20 03:34:59;;;;;;;11.80;4.10;;;;;;;19.11;40.99;99412.94;6148818;23;20048;-96
2023/06/20 03:37:38;;;;;;;10.35;4.13;;;;;;;19.13;40.84;99413.38;6102801;23;20041;-93
2023/06/20 03:40:05;;;;;;;13.20;3.72;;;;;;;19.18;40.84;99415.84;6123109;23;20017;-95
2023/06/20 03:42:37;;;;;;;10.98;3.88;;;;;;;18.83;40.38;99360.56;6131431;23;20025;-94
2023/06/20 03:45:59;;;;;;;15.52;3.95;;;;;;;19.20;40.94;99421.00;6117358;23;20011;-94
2023/06/20 03:48:26;;;;;;;9.70;4.07;;;;;;;18.98;40.76;99376.31;6061103;23;20026;-94
2023/06/20 03:50:55;;;;;;;10.57;4.00;;;;;;;18.98;40.61;99379.06;6063253;23;20456;-96
2023/06/20 03:54:05;;;;;;;8.93;4.03;;;;;;;19.27;41.28;99420.34;6068312;23;20022;-92
2023/06/20 03:56:32;;;;;;;9.35;3.60;;;;;;;18.84;41.70;99328.13;5944828;24;20272;-94
2023/06/20 03:58:59;;;;;;;14.43;4.15;;;;;;;19.19;41.37;99383.38;5952807;24;20020;-96
2023/06/20 04:01:31;;;;;;;12.60;3.58;;;;;;;18.92;40.22;99336.22;5955628;24;20027;-94
2023/06/20 04:04:05;;;;;;;11.70;3.60;;;;;;;19.33;39.94;99399.47;5977917;24;20016;-94
2023/06/20 04:06:36;;;;;;;7.40;3.35;;;;;;;19.46;40.09;99403.66;5956196;24;20028;-96
2023/06/20 04:09:05;;;;;;;10.90;3.40;;;;;;;19.47;39.88;99417.16;5925451;24;20024;-95
2023/06/20 04:11:37;;;;;;;8.50;3.72;;;;;;;19.18;39.13;99365.97;5920500;24;20022;-93
2023/06/20 04:14:11;;;;;;;8.73;3.30;;;;;;;19.37;40.03;99380.91;5921290;24;20041;-96
2023/06/20 04:16:44;;;;;;;8.60;3.40;;;;;;;19.37;39.40;99354.03;5920413;24;20010;-92
2023/06/20 04:19:11;;;;;;;9.98;3.53;;;;;;;19.61;39.35;99368.66;5897943;24;20021;-94
2023/06/20 04:21:52;;;;;;;65.38;5.38;;;;;;;19.66;39.51;99362.81;5898362;24;20029;-94
2023/06/20 04:24:21;;;;;;;11.52;3.30;;;;;;;19.46;38.66;99334.34;5955051;24;20004;-93
2023/06/20 04:27:11;;;;;;;9.32;3.63;;;;;;;19.53;38.14;99334.44;6033177;23;20029;-91
2023/06/20 04:29:58;;;;;;;10.00;3.28;;;;;;;19.55;37.75;99317.44;6154957;23;20012;-94
2023/06/20 04:35:40;;;;;;;11.50;3.75;;;;;;;19.97;36.70;99367.25;6093462;23;20061;-96
2023/06/20 04:38:16;;;;;;;12.75;3.72;;;;;;;20.17;37.99;99384.56;6116337;23;20025;-95
2023/06/20 04:41:26;;;;;;;16.40;3.63;;;;;;;19.98;36.64;99340.28;6122905;23;20048;-95
2023/06/20 04:43:54;;;;;;;9.15;3.10;;;;;;;20.23;38.17;99369.19;6142163;23;20471;-94
2023/06/20 04:46:21;;;;;;;7.05;3.50;;;;;;;20.38;37.54;99381.25;6141331;23;20038;-94
2023/06/20 04:48:48;;;;;;;33.75;5.22;;;;;;;20.38;35.62;99381.25;6136798;23;20022;-91
2023/06/20 04:51:16;;;;;;;15.77;3.53;;;;;;;20.33;35.94;99367.69;6107736;23;20028;-90
2023/06/20 04:53:42;;;;;;;14.65;3.90;;;;;;;20.42;36.00;99384.88;6108026;23;20018;-92
2023/06/20 04:56:15;;;;;;;26.48;3.90;;;;;;;20.52;34.48;99383.44;6137205;23;20037;-95
2023/06/20 04:58:45;;;;;;;13.32;3.50;;;;;;;20.63;35.24;99389.94;6136276;23;20018;-96
2023/06/20 05:01:14;;;;;;;12.98;4.05;;;;;;;20.68;35.57;99384.03;6133592;23;20029;-92
2023/06/20 05:03:46;;;;;;;14.63;3.30;;;;;;;20.77;35.20;99395.66;6134494;23;20053;-92
2023/06/20 05:06:17;;;;;;;14.32;3.38;;;;;;;20.76;35.21;99382.13;6125778;23;20077;-91
2023/06/20 05:08:45;;;;;;;14.30;3.58;;;;;;;20.61;34.08;99364.50;6105965;23;20026;-91
2023/06/20 05:11:12;;;;;;;11.75;3.25;;;;;;;20.49;34.75;99359.97;6104834;23;20113;-86
2023/06/20 05:13:38;;;;;;;15.07;3.40;;;;;;;20.71;34.74;99383.28;6132497;23;20419;-91
2023/06/20 05:16:04;;;;;;;15.02;3.75;;;;;;;20.58;34.08;99356.94;6108431;23;20022;-90
2023/06/20 05:18:30;;;;;;;13.97;4.33;;;;;;;20.70;34.64;99361.44;6128244;23;20025;-90
2023/06/20 05:20:56;;;;;;;16.60;3.53;;;;;;;21.00;34.03;99394.72;6129730;23;20021;-92
2023/06/20 05:23:26;;;;;;;8.02;3.60;;;;;;;21.04;33.44;99378.88;6134125;23;20085;-93
2023/06/20 05:25:55;;;;;;;25.55;3.85;;;;;;;20.87;34.71;99347.72;6112603;23;20057;-92
2023/06/20 05:28:22;;;;;;;12.82;3.45;;;;;;;21.03;34.75;99346.69;6138750;23;20024;-90
2023/06/20 05:30:48;;;;;;;5.97;3.03;;;;;;;21.12;34.79;99355.50;6163180;23;20044;-87
2023/06/20 05:33:15;;;;;;;14.23;4.03;;;;;;;21.19;33.48;99369.50;6168870;23;20024;-89
2023/06/20 05:35:41;;;;;;;6.20;3.50;;;;;;;21.24;32.90;99371.09;6168810;23;20352;-88
2023/06/20 05:38:07;;;;;;;11.55;3.65;;;;;;;21.05;32.65;99328.44;6117248;23;20017;-89
2023/06/20 05:40:33;;;;;;;9.53;3.83;;;;;;;21.37;33.11;99369.66;6140719;23;20027;-83
2023/06/20 05:43:00;;;;;;;11.95;3.90;;;;;;;21.62;33.79;99375.41;6122013;23;20021;-85
2023/06/20 05:45:26;;;;;;;13.27;3.30;;;;;;;21.67;32.91;99371.50;6145946;23;20072;-84
2023/06/20 05:47:51;;;;;;;14.63;3.50;;;;;;;21.69;32.64;99378.28;6149311;23;20466;-85
2023/06/20 05:50:17;;;;;;;11.50;3.40;;;;;;;21.47;32.07;99345.91;6163586;23;20450;-86
2023/06/20 05:52:43;;;;;;;27.58;3.45;;;;;;;21.51;33.69;99344.75;6155551;23;20029;-85
2023/06/20 05:55:09;;;;;;;14.80;3.50;;;;;;;21.74;33.14;99366.75;6157581;23;20361;-83
2023/06/20 05:57:35;;;;;;;42.37;4.40;;;;;;;21.88;33.11;99370.84;6155761;23;20017;-86
2023/06/20 06:00:11;;;;;;;17.35;4.10;;;;;;;21.99;33.42;99353.03;6157598;23;20486;-87
2023/06/20 06:02:46;;;;;;;17.42;4.65;;;;;;;22.15;33.57;99368.59;6131902;23;20022;-83
2023/06/20 06:05:12;;;;;;;20.45;4.20;;;;;;;22.20;32.34;99357.94;6155734;23;20470;-87
2023/06/20 06:07:38;;;;;;;13.02;3.75;;;;;;;22.05;31.94;99329.19;6157092;23;20469;-87
2023/06/20 06:10:07;;;;;;;10.88;3.35;;;;;;;22.00;33.46;99320.41;6158707;23;20021;-86
2023/06/20 06:12:36;;;;;;;10.93;4.03;;;;;;;22.23;32.23;99367.50;6132293;23;20105;-84
2023/06/20 06:15:03;;;;;;;23.73;4.35;;;;;;;22.23;32.69;99353.56;6133211;23;20017;-86
2023/06/20 06:17:31;;;;;;;28.77;4.20;;;;;;;22.27;33.44;99332.09;6159117;23;20448;-85
2023/06/20 06:19:57;;;;;;;31.58;4.18;;;;;;;22.46;33.71;99328.19;6157027;23;20443;-85
2023/06/20 06:22:24;;;;;;;20.93;3.73;;;;;;;22.60;31.99;99350.53;6159030;23;20115;-87
2023/06/20 06:24:51;;;;;;;21.13;3.65;;;;;;;22.72;33.60;99344.59;6155199;23;20355;-85
2023/06/20 06:27:19;;;;;;;16.60;3.80;;;;;;;22.58;33.22;99313.09;6152095;23;20044;-85
2023/06/20 06:29:46;;;;;;;11.70;3.92;;;;;;;22.81;32.32;99354.56;6102269;23;20017;-84
2023/06/20 06:32:14;;;;;;;13.85;3.55;;;;;;;22.70;31.97;99327.47;6123534;23;20018;-85
2023/06/20 06:34:41;;;;;;;14.40;3.33;;;;;;;22.57;32.44;99342.16;6153938;23;20041;-86
2023/06/20 06:37:08;;;;;;;13.38;3.70;;;;;;;22.55;33.73;99347.31;6152251;23;20021;-82
2023/06/20 06:39:36;;;;;;;33.15;5.35;;;;;;;22.57;30.94;99340.16;6126826;23;20024;-83
2023/06/20 06:42:06;;;;;;;17.98;4.68;;;;;;;22.39;31.66;99308.69;6127414;23;20104;-83
2023/06/20 06:44:35;;;;;;;16.55;3.50;;;;;;;22.50;31.63;99315.06;6127076;23;20101;-82
2023/06/20 06:47:01;;;;;;;23.30;4.40;;;;;;;22.68;32.43;99309.53;6127891;23;20024;-86
2023/06/20 06:49:27;;;;;;;22.23;5.00;;;;;;;23.11;34.02;99329.16;6127331;23;20041;-83
2023/06/20 06:51:53;;;;;;;22.48;3.78;;;;;;;23.33;31.42;99318.81;6153202;23;20272;-85
2023/06/20 06:54:20;;;;;;;11.10;3.35;;;;;;;23.47;31.08;99290.88;6127555;23;20067;-84
2023/06/20 06:56:46;;;;;;;29.65;4.88;;;;;;;23.57;29.72;99306.00;6130278;23;20017;-84
2023/06/20 06:59:12;;;;;;;34.35;5.20;;;;;;;23.66;30.44;99293.25;6154494;23;20087;-85
2023/06/20 07:01:38;;;;;;;11.73;3.58;;;;;;;23.85;31.05;99305.22;6155395;23;20090;-85
2023/06/20 07:04:04;;;;;;;34.83;4.72;;;;;;;23.58;29.33;99282.53;6132012;23;20021;-83
2023/06/20 07:06:30;;;;;;;43.20;5.10;;;;;;;23.77;32.21;99293.25;6158680;23;20443;-86
2023/06/20 07:08:56;;;;;;;129.82;8.45;;;;;;;24.08;30.36;99322.28;6130848;23;20112;-84
2023/06/20 07:11:22;;;;;;;21.03;3.97;;;;;;;23.88;31.17;99279.28;6157487;23;20017;-84
2023/06/20 07:13:49;;;;;;;12.70;3.45;;;;;;;24.12;31.39;99320.28;6157163;23;20021;-85
2023/06/20 07:16:21;;;;;;;8.37;3.20;;;;;;;24.03;29.17;99305.94;6155167;23;20355;-87
2023/06/20 07:18:50;;;;;;;17.25;3.67;;;;;;;24.23;29.67;99311.84;6108740;23;20443;-85
2023/06/20 07:21:18;;;;;;;15.30;4.13;;;;;;;24.01;28.72;99277.63;6157852;23;20022;-87
2023/06/20 07:23:43;;;;;;;19.90;4.38;;;;;;;24.08;28.49;99316.69;6156644;23;20264;-85
2023/06/20 07:26:09;;;;;;;26.33;4.77;;;;;;;23.83;29.04;99274.09;6128710;23;20013;-85
2023/06/20 07:28:36;;;;;;;17.20;3.53;;;;;;;24.22;29.99;99309.47;6157176;23;20025;-84
2023/06/20 07:31:02;;;;;;;17.08;3.72;;;;;;;23.85;28.88;99266.13;6156547;23;20063;-86
2023/06/20 07:33:28;;;;;;;12.10;3.83;;;;;;;24.11;30.63;99307.50;6156419;23;20028;-85
2023/06/20 07:35:54;;;;;;;31.00;4.75;;;;;;;24.05;28.58;99297.97;6128679;23;20028;-84
2023/06/20 07:38:20;;;;;;;23.77;3.93;;;;;;;24.12;30.62;99303.50;6156677;23;20017;-84
2023/06/20 07:40:46;;;;;;;22.95;4.03;;;;;;;24.28;30.25;99300.25;6132040;23;20731;-83
2023/06/20 07:43:12;;;;;;;11.68;3.08;;;;;;;24.31;30.39;99295.88;6159434;23;20028;-83
2023/06/20 07:45:38;;;;;;;20.47;3.60;;;;;;;24.08;29.06;99280.41;6161581;23;20045;-83
2023/06/20 07:48:05;;;;;;;13.23;4.22;;;;;;;24.38;30.17;99309.78;6131907;23;20347;-83
2023/06/20 07:50:31;;;;;;;9.75;3.70;;;;;;;24.06;30.89;99259.66;6107196;23;20459;-84
2023/06/20 07:52:59;;;;;;;22.40;4.13;;;;;;;24.23;30.87;99274.75;6155411;23;20043;-83
2023/06/20 07:55:38;;;;;;;15.25;3.72;;;;;;;24.25;30.45;99284.31;6107570;23;20100;-85
2023/06/20 07:58:04;;;;;;;9.30;3.65;;;;;;;24.12;29.77;99286.75;6133456;23;20470;-84
2023/06/20 08:00:30;;;;;;;23.92;4.82;;;;;;;24.11;29.88;99289.97;6154643;23;20041;-87
2023/06/20 08:02:56;;;;;;;6.57;3.20;;;;;;;23.98;29.59;99292.41;6101473;23;20022;-87
2023/06/20 08:05:22;;;;;;;13.35;3.17;;;;;;;23.86;28.88;99298.41;6121290;23;20584;-85
2023/06/20 08:07:48;;;;;;;11.57;3.05;;;;;;;23.64;29.86;99283.69;6130648;23;20100;-86
2023/06/20 08:10:15;;;;;;;10.57;3.67;;;;;;;23.92;29.90;99288.44;6156175;23;20479;-87
2023/06/20 08:12:41;;;;;;;7.53;3.35;;;;;;;23.87;29.98;99258.13;6109121;23;20108;-85
2023/06/20 08:15:07;;;;;;;11.18;3.45;;;;;;;24.17;30.52;99251.22;6131491;23;20056;-82
2023/06/20 08:17:35;;;;;;;16.42;3.30;;;;;;;24.63;28.56;99284.53;6155062;23;20092;-85
2023/06/20 08:20:06;;;;;;;20.40;4.03;;;;;;;24.65;29.07;99289.72;6133168;23;20355;-84
2023/06/20 08:22:33;;;;;;;12.45;3.70;;;;;;;24.67;30.75;99262.13;6158102;23;20436;-85
2023/06/20 08:24:59;;;;;;;13.30;3.03;;;;;;;24.92;30.16;99293.53;6132194;23;20041;-83
2023/06/20 08:27:25;;;;;;;23.50;3.88;;;;;;;24.18;29.46;99245.25;6158614;23;20028;-86
2023/06/20 08:29:51;;;;;;;18.98;3.92;;;;;;;24.26;29.79;99259.97;6134464;23;20356;-85
2023/06/20 08:32:18;;;;;;;17.63;3.47;;;;;;;24.69;29.91;99288.47;6159890;23;20024;-85
2023/06/20 08:34:49;;;;;;;25.13;4.07;;;;;;;24.41;29.95;99238.38;6131256;23;20112;-87
2023/06/20 08:37:18;;;;;;;18.15;3.88;;;;;;;24.60;28.39;99263.81;6156601;23;20436;-84
2023/06/20 08:39:44;;;;;;;35.03;4.75;;;;;;;24.59;27.65;99259.41;6159821;23;20025;-85
2023/06/20 08:42:10;;;;;;;36.92;3.78;;;;;;;24.89;29.18;99249.59;6158363;23;20028;-84
2023/06/20 08:44:36;;;;;;;;;;;;;;;25.21;29.30;99288.53;6157931;23;20024;-86
2023/06/20 08:47:03;;;;;;;22.52;3.67;;;;;;;24.97;28.19;99256.75;6137709;23;19916;-84
2023/06/20 08:49:31;;;;;;;23.75;4.15;;;;;;;25.17;29.19;99268.19;6158797;23;20088;-84
2023/06/20 08:52:02;;;;;;;35.35;4.70;;;;;;;25.08;28.17;99285.41;6157784;23;20033;-86
2023/06/20 08:54:34;;;;;;;27.25;4.53;;;;;;;25.11;28.84;99280.19;6158776;23;20071;-87
2023/06/20 08:57:00;;;;;;;19.50;4.28;;;;;;;24.76;29.16;99238.09;6158557;23;20025;-85
2023/06/20 08:59:26;;;;;;;11.25;3.83;;;;;;;24.56;29.71;99237.84;6161903;23;20028;-86
2023/06/20 09:02:36;;;;;;;;;;;;;;;;;;;;;
2023/06/20 09:05:57;;;;;;;8.25;3.20;;;;;;;24.37;29.44;99202.84;6148777;23;20471;-86
2023/06/20 09:08:37;;;;;;;9.13;3.85;;;;;;;24.69;29.82;99262.53;6179940;23;20022;-86
2023/06/20 09:11:08;;;;;;;6.72;3.60;;;;;;;24.72;29.57;99262.50;6144194;23;20025;-88
2023/06/20 09:13:34;;;;;;;9.77;3.95;;;;;;;24.40;29.16;99226.34;6153981;23;20115;-88
2023/06/20 09:16:11;;;;;;;14.60;3.60;;;;;;;24.83;30.47;99251.25;6153791;23;20112;-84
2023/06/20 09:18:40;;;;;;;10.75;3.45;;;;;;;25.01;29.35;99257.50;6156087;23;20017;-87
2023/06/20 09:21:13;;;;;;;13.95;3.58;;;;;;;24.91;29.75;99250.00;6155726;23;20018;-87
2023/06/20 09:23:40;;;;;;;7.60;3.88;;;;;;;24.55;29.79;99208.31;6129147;23;20037;-85
2023/06/20 09:26:14;;;;;;;9.70;3.67;;;;;;;24.83;29.81;99252.06;6153057;23;20255;-87
2023/06/20 09:28:42;;;;;;;16.52;3.80;;;;;;;24.96;28.96;99227.16;6156072;23;20375;-86
2023/06/20 09:31:08;;;;;;;13.95;3.95;;;;;;;25.17;28.77;99222.63;6154457;23;20048;-84
2023/06/20 09:33:38;;;;;;;;;;;;;;;25.40;27.83;99245.19;6150511;23;20371;-84
2023/06/20 09:36:17;;;;;;;10.68;3.38;;;;;;;25.20;28.14;99210.59;6156952;23;20632;-81
2023/06/20 09:38:44;;;;;;;12.18;3.70;;;;;;;25.12;28.04;99173.50;6152912;23;20463;-84
2023/06/20 09:41:15;;;;;;;42.50;5.20;;;;;;;25.28;27.34;99193.34;6152922;23;20025;-83
2023/06/20 09:43:41;;;;;;;10.30;3.78;;;;;;;25.37;28.17;99218.03;6153850;23;20141;-84
2023/06/20 09:46:07;;;;;;;8.02;3.70;;;;;;;25.40;27.70;99228.41;6152614;23;20046;-83
2023/06/20 09:48:35;;;;;;;20.45;3.92;;;;;;;25.59;27.92;99234.59;6153171;23;20017;-84
2023/06/20 09:51:02;;;;;;;27.95;5.28;;;;;;;25.74;28.90;99211.63;6180326;23;20029;-86
2023/06/20 09:53:55;;;;;;;11.10;4.18;;;;;;;25.67;27.38;99225.72;6155748;23;20028;-84
2023/06/20 09:56:24;;;;;;;21.17;3.88;;;;;;;25.38;28.11;99224.44;6154518;23;20044;-83
2023/06/20 09:58:53;;;;;;;20.83;4.15;;;;;;;25.23;27.46;99209.75;6159150;23;20432;-85
2023/06/20 10:01:20;;;;;;;13.13;3.75;;;;;;;25.23;27.92;99195.78;6157241;23;20049;-82
2023/06/20 10:03:48;;;;;;;14.27;4.20;;;;;;;25.61;27.08;99220.97;6181325;23;20025;-83
2023/06/20 10:06:14;;;;;;;30.17;5.25;;;;;;;25.41;26.47;99216.00;6157437;23;20040;-82
2023/06/20 10:08:40;;;;;;;27.60;5.03;;;;;;;25.19;27.23;99207.00;6158652;23;20538;-81
2023/06/20 10:11:07;;;;;;;;;;;;;;;25.02;28.45;99219.91;6155558;23;20040;-83
2023/06/20 10:13:33;;;;;;;20.17;4.47;;;;;;;24.63;27.95;99213.84;6155102;23;20254;-91
2023/06/20 10:15:59;;;;;;;;;;;;;;;24.64;28.45;99221.84;6157154;23;20034;-82
2023/06/20 10:18:36;;;;;;;15.10;3.72;;;;;;;24.81;29.24;99214.53;6152259;23;19944;-84
2023/06/20 10:21:06;;;;;;;12.73;4.10;;;;;;;24.90;29.52;99212.06;6154405;23;20096;-84
2023/06/20 10:23:35;;;;;;;20.38;4.53;;;;;;;25.28;29.09;99220.53;6153389;23;20017;-84
2023/06/20 10:26:05;;;;;;;20.00;3.97;;;;;;;25.52;28.19;99213.84;6156911;23;20013;-83
2023/06/20 10:28:31;;;;;;;18.63;4.60;;;;;;;25.52;28.63;99207.47;6179078;23;20024;-83
2023/06/20 10:31:00;;;;;;;7.18;4.38;;;;;;;25.37;28.97;99206.84;6155122;23;20017;-83
2023/06/20 10:33:28;;;;;;;9.48;4.05;;;;;;;25.21;27.89;99209.41;6157962;23;20407;-90
2023/06/20 10:36:03;;;;;;;22.52;4.70;;;;;;;25.37;28.86;99206.84;6156531;23;20029;-87
2023/06/20 10:38:31;;;;;;;7.93;3.80;;;;;;;25.59;28.34;99196.19;6158839;23;20023;-90
2023/06/20 10:41:14;;;;;;;25.38;4.25;;;;;;;25.55;27.20;99181.44;6159649;23;20351;-90
2023/06/20 10:43:56;;;;;;;13.98;4.22;;;;;;;25.78;27.07;99195.56;6180171;23;20725;-85
2023/06/20 10:46:29;;;;;;;31.33;4.78;;;;;;;25.48;27.61;99182.31;6157917;23;20041;-81
2023/06/20 10:48:55;;;;;;;48.08;5.78;;;;;;;25.60;27.52;99189.41;6183282;23;20028;-84
2023/06/20 10:51:21;;;;;;;21.27;4.30;;;;;;;25.36;27.56;99182.06;6158627;23;20045;-95
2023/06/20 10:53:46;;;;;;;45.08;5.50;;;;;;;24.98;27.63;99163.22;6182239;23;20018;-84
2023/06/20 10:56:26;;;;;;;17.10;4.70;;;;;;;25.16;28.56;99168.66;6154839;23;20601;-82
2023/06/20 10:58:52;;;;;;;40.55;5.93;;;;;;;25.55;27.90;99179.44;6129329;23;20018;-83
2023/06/20 11:01:19;;;;;;;36.92;5.13;;;;;;;25.81;27.48;99165.97;6156698;23;20017;-81
2023/06/20 11:03:46;;;;;;;16.20;4.57;;;;;;;26.04;27.39;99170.06;6157617;23;20411;-84
2023/06/20 11:06:18;;;;;;;18.73;5.65;;;;;;;25.78;28.17;99153.56;6159369;23;20017;-82
2023/06/20 11:08:45;;;;;;;14.40;4.28;;;;;;;25.66;28.24;99164.50;6157188;23;20077;-84
2023/06/20 11:11:11;;;;;;;7.65;4.43;;;;;;;25.67;29.29;99178.09;6180905;23;20368;-84
2023/06/20 11:13:43;;;;;;;17.73;5.47;;;;;;;25.41;28.63;99146.03;6156574;23;20119;-83
2023/06/20 11:16:18;;;;;;;15.50;5.50;;;;;;;25.44;29.17;99170.38;6158678;23;20028;-85
2023/06/20 11:18:44;;;;;;;14.25;5.13;;;;;;;25.43;28.93;99171.59;6157376;23;20106;-82
2023/06/20 11:21:10;;;;;;;14.18;6.85;;;;;;;25.56;29.27;99166.22;6158457;23;20022;-85
2023/06/20 11:23:37;;;;;;;20.60;7.35;;;;;;;25.43;29.09;99138.00;6160316;23;20025;-85
2023/06/20 11:26:03;;;;;;;16.70;5.35;;;;;;;25.70;29.29;99163.28;6159080;23;20017;-85
2023/06/20 11:28:29;;;;;;;27.48;6.15;;;;;;;25.80;27.58;99161.59;6163782;23;20017;-89
2023/06/20 11:30:55;;;;;;;21.23;5.53;;;;;;;25.63;28.55;99162.56;6135675;23;20030;-87
2023/06/20 11:33:21;;;;;;;27.52;5.40;;;;;;;25.31;28.69;99144.16;6183957;23;20057;-92
2023/06/20 11:35:55;;;;;;;26.38;5.25;;;;;;;25.66;27.67;99170.94;6160025;23;20064;-91
2023/06/20 11:38:27;;;;;;;18.50;6.35;;;;;;;25.48;27.56;99159.94;6159994;23;20019;-92
2023/06/20 11:41:06;;;;;;;20.88;6.63;;;;;;;25.60;28.72;99146.63;6136208;23;20028;-90
2023/06/20 11:43:41;;;;;;;16.63;5.10;;;;;;;25.51;28.07;99131.09;6164163;23;20024;-93
2023/06/20 11:46:08;;;;;;;15.45;4.70;;;;;;;25.31;27.70;99125.34;6187093;23;20013;-90